Time;durP1;ratioP1;P1;durP2;ratioP2;P2;SDS_P1;SDS_P2;PMS_P1;PMS_P2;Temp;Humidity;BMP_temperature;BMP_pressure;BME280_temperature;BME280_humidity;BME280_pressure;Samples;Min_cycle;Max_cycle;Signal;HPM_P1;HPM_P2
2024/03/05 00:00:50;;;;;;;84.25;39.67;;;;;;;-140.33;100.00;61596.09;5070576;28;20024;-72
2024/03/05 00:03:16;;;;;;;97.38;42.60;;;;;;;-140.33;100.00;61596.09;5069878;28;20155;-73
2024/03/05 00:05:41;;;;;;;88.45;40.13;;;;;;;-140.33;100.00;61596.09;5058073;28;20036;-72
2024/03/05 00:08:06;;;;;;;91.80;40.00;;;;;;;-140.33;100.00;61596.09;5069802;28;20028;-73
2024/03/05 00:10:32;;;;;;;90.88;40.63;;;;;;;-140.33;100.00;61596.09;5051511;28;20094;-72
2024/03/05 00:12:58;;;;;;;93.93;41.13;;;;;;;-140.33;100.00;61596.09;5069936;28;20141;-72
2024/03/05 00:15:26;;;;;;;85.20;36.22;;;;;;;-140.33;100.00;61596.09;5069786;28;20063;-72
2024/03/05 00:17:52;;;;;;;85.72;36.63;;;;;;;-140.33;100.00;61596.09;5070146;28;20033;-72
2024/03/05 00:20:19;;;;;;;91.03;37.22;;;;;;;-140.33;100.00;61596.09;5068503;28;20035;-74
2024/03/05 00:22:47;;;;;;;86.88;37.83;;;;;;;-140.33;100.00;61596.09;5069307;28;20750;-72
2024/03/05 00:25:13;;;;;;;90.10;40.58;;;;;;;-140.33;100.00;61596.09;5070088;28;20028;-72
2024/03/05 00:27:39;;;;;;;88.78;38.53;;;;;;;-140.33;100.00;61596.09;5069642;28;20028;-72
2024/03/05 00:30:08;;;;;;;89.57;39.35;;;;;;;-140.33;100.00;61596.09;5050943;28;20039;-73
2024/03/05 00:32:34;;;;;;;91.75;38.65;;;;;;;-140.33;100.00;61596.09;5068097;28;20035;-73
2024/03/05 00:35:00;;;;;;;84.85;38.58;;;;;;;-140.33;100.00;61596.09;5069348;28;20093;-70
2024/03/05 00:37:25;;;;;;;94.05;39.10;;;;;;;-140.33;100.00;61596.09;5069297;28;20036;-72
2024/03/05 00:39:51;;;;;;;86.03;37.55;;;;;;;-140.33;100.00;61596.09;5050773;28;20063;-72
2024/03/05 00:42:16;;;;;;;87.10;38.47;;;;;;;-140.33;100.00;61596.09;5050960;28;20086;-71
2024/03/05 00:44:42;;;;;;;93.90;41.08;;;;;;;-140.33;100.00;61596.09;5069221;28;20048;-72
2024/03/05 00:47:07;;;;;;;92.70;37.75;;;;;;;-140.33;100.00;61596.09;5050815;28;20056;-73
2024/03/05 00:49:33;;;;;;;93.28;39.10;;;;;;;-140.33;100.00;61596.09;5051017;28;20040;-72
2024/03/05 00:51:58;;;;;;;94.15;39.95;;;;;;;-140.33;100.00;61596.09;5068518;28;20094;-72
2024/03/05 00:54:24;;;;;;;89.47;37.38;;;;;;;-140.33;100.00;61596.09;5068370;28;20036;-72
2024/03/05 00:56:51;;;;;;;90.00;38.65;;;;;;;-140.33;100.00;61596.09;5051272;28;21725;-72
2024/03/05 00:59:17;;;;;;;88.72;38.05;;;;;;;-140.33;100.00;61596.09;5069604;28;20036;-72
2024/03/05 01:01:43;;;;;;;89.75;37.22;;;;;;;-140.33;100.00;61596.09;5068743;28;20028;-73
2024/03/05 01:04:08;;;;;;;94.68;38.13;;;;;;;-140.33;100.00;61596.09;5058471;28;20077;-73
2024/03/05 01:06:34;;;;;;;88.00;37.78;;;;;;;-140.33;100.00;61596.09;5050232;28;20028;-72
2024/03/05 01:08:59;;;;;;;87.82;37.80;;;;;;;-140.33;100.00;61596.09;5068775;28;20491;-72
2024/03/05 01:11:25;;;;;;;86.45;39.45;;;;;;;-140.33;100.00;61596.09;5068783;28;20029;-72
2024/03/05 01:13:50;;;;;;;91.32;39.10;;;;;;;-140.33;100.00;61596.09;5067221;28;20028;-72
2024/03/05 01:16:15;;;;;;;92.50;38.72;;;;;;;-140.33;100.00;61596.09;5068574;28;20036;-73
2024/03/05 01:18:41;;;;;;;93.63;39.20;;;;;;;-140.33;100.00;61596.09;5068204;28;20418;-73
2024/03/05 01:21:07;;;;;;;90.50;37.78;;;;;;;-140.33;100.00;61596.09;5067169;28;20032;-73
2024/03/05 01:23:33;;;;;;;92.30;39.13;;;;;;;-140.33;100.00;61596.09;5056401;28;20505;-72
2024/03/05 01:25:59;;;;;;;93.95;40.28;;;;;;;-140.33;100.00;61596.09;5067415;28;20483;-73
2024/03/05 01:28:28;;;;;;;94.88;38.95;;;;;;;-140.33;100.00;61596.09;5068782;28;20031;-72
2024/03/05 01:30:53;;;;;;;93.35;39.60;;;;;;;-140.33;100.00;61596.09;5065533;28;20507;-72
2024/03/05 01:33:19;;;;;;;90.82;39.60;;;;;;;-140.33;100.00;61596.09;5068588;28;20031;-72
2024/03/05 01:35:48;;;;;;;87.95;40.85;;;;;;;-140.33;100.00;61596.09;5068615;28;20111;-73
2024/03/05 01:38:14;;;;;;;93.47;41.17;;;;;;;-140.33;100.00;61596.09;5068658;28;20027;-72
2024/03/05 01:40:40;;;;;;;95.97;41.35;;;;;;;-140.33;100.00;61596.09;5069022;28;20032;-73
2024/03/05 01:43:06;;;;;;;92.40;39.63;;;;;;;-140.33;100.00;61596.09;5050345;28;20039;-71
2024/03/05 01:45:33;;;;;;;87.90;40.25;;;;;;;-140.33;100.00;61596.09;5067774;28;20033;-72
2024/03/05 01:48:00;;;;;;;90.47;37.92;;;;;;;-140.33;100.00;61596.09;5066489;28;20020;-71
2024/03/05 01:50:28;;;;;;;90.70;41.45;;;;;;;-140.33;100.00;61596.09;5068506;28;20025;-71
2024/03/05 01:52:54;;;;;;;82.97;38.28;;;;;;;-140.33;100.00;61596.09;5066198;28;20120;-70
2024/03/05 01:55:21;;;;;;;89.20;40.42;;;;;;;-140.33;100.00;61596.09;5068018;28;20048;-70
2024/03/05 01:57:49;;;;;;;95.72;41.45;;;;;;;-140.33;100.00;61596.09;5067714;28;20024;-71
2024/03/05 02:00:15;;;;;;;84.13;38.13;;;;;;;-140.33;100.00;61596.09;5066751;28;20090;-71
2024/03/05 02:02:44;;;;;;;84.90;39.15;;;;;;;-140.33;100.00;61596.09;5068131;28;20101;-72
2024/03/05 02:05:12;;;;;;;101.03;43.25;;;;;;;-140.33;100.00;61596.09;5059970;28;20024;-70
2024/03/05 02:07:39;;;;;;;93.00;39.92;;;;;;;-140.33;100.00;61596.09;5081403;28;20025;-71
2024/03/05 02:10:07;;;;;;;91.20;39.47;;;;;;;-140.33;100.00;61596.09;5070243;28;20043;-71
2024/03/05 02:12:37;;;;;;;102.78;41.90;;;;;;;-140.33;100.00;61596.09;5068524;28;20114;-71
2024/03/05 02:15:06;;;;;;;98.22;40.78;;;;;;;-140.33;100.00;61596.09;5068207;28;20028;-70
2024/03/05 02:17:32;;;;;;;95.30;40.22;;;;;;;-140.33;100.00;61596.09;5068568;28;20103;-71
2024/03/05 02:19:57;;;;;;;97.05;40.92;;;;;;;-140.33;100.00;61596.09;5053379;28;20119;-72
2024/03/05 02:22:22;;;;;;;98.43;40.17;;;;;;;-140.33;100.00;61596.09;5071082;28;20028;-72
2024/03/05 02:24:48;;;;;;;93.40;40.63;;;;;;;-140.33;100.00;61596.09;5071762;28;20039;-71
2024/03/05 02:27:15;;;;;;;96.53;39.40;;;;;;;-140.33;100.00;61596.09;5070190;28;20037;-72
2024/03/05 02:29:41;;;;;;;95.90;40.28;;;;;;;-140.33;100.00;61596.09;5069140;28;20032;-71
2024/03/05 02:32:08;;;;;;;96.35;39.08;;;;;;;-140.33;100.00;61596.09;5070004;28;20070;-71
2024/03/05 02:34:34;;;;;;;90.13;39.58;;;;;;;-140.33;100.00;61596.09;5071402;28;20036;-71
2024/03/05 02:37:00;;;;;;;87.88;36.88;;;;;;;-140.33;100.00;61596.09;5053193;28;20085;-72
2024/03/05 02:39:27;;;;;;;89.30;38.10;;;;;;;-140.33;100.00;61596.09;5053433;28;20114;-71
2024/03/05 02:41:54;;;;;;;88.25;38.35;;;;;;;-140.33;100.00;61596.09;5071609;28;20039;-71
2024/03/05 02:44:20;;;;;;;92.30;41.33;;;;;;;-140.33;100.00;61596.09;5062772;28;20406;-72
2024/03/05 02:46:45;;;;;;;96.50;41.45;;;;;;;-140.33;100.00;61596.09;5053739;28;20032;-71
2024/03/05 02:49:12;;;;;;;96.80;41.65;;;;;;;-140.33;100.00;61596.09;5070936;28;20029;-71
2024/03/05 02:51:38;;;;;;;92.57;39.08;;;;;;;-140.33;100.00;61596.09;5070940;28;20052;-71
2024/03/05 02:54:03;;;;;;;93.20;40.50;;;;;;;-140.33;100.00;61596.09;5053137;28;20121;-72
2024/03/05 02:56:29;;;;;;;95.55;41.10;;;;;;;-140.33;100.00;61596.09;5053129;28;20045;-71
2024/03/05 02:58:54;;;;;;;94.93;41.47;;;;;;;-140.33;100.00;61596.09;5070939;28;20169;-71
2024/03/05 03:01:20;;;;;;;94.20;41.53;;;;;;;-140.33;100.00;61596.09;5071294;28;20033;-71
2024/03/05 03:03:45;;;;;;;91.82;40.33;;;;;;;-140.33;100.00;61596.09;5057834;28;20024;-71
2024/03/05 03:06:17;;;;;;;91.70;41.28;;;;;;;-140.33;100.00;61596.09;5070842;28;20035;-71
2024/03/05 03:08:43;;;;;;;;;;;;;;;-140.33;100.00;61596.09;5071385;28;20041;-70
2024/03/05 03:11:14;;;;;;;85.57;40.05;;;;;;;-140.33;100.00;61596.09;5071485;28;19920;-72
2024/03/05 03:13:40;;;;;;;92.18;40.25;;;;;;;-140.33;100.00;61596.09;5069356;28;20479;-71
2024/03/05 03:16:05;;;;;;;86.68;40.63;;;;;;;-140.33;100.00;61596.09;5071021;28;20078;-71
2024/03/05 03:18:32;;;;;;;90.88;41.65;;;;;;;-140.33;100.00;61596.09;5070040;28;20067;-71
2024/03/05 03:20:58;;;;;;;79.82;38.35;;;;;;;-140.33;100.00;61596.09;5070382;28;20075;-71
2024/03/05 03:23:23;;;;;;;83.93;40.15;;;;;;;-140.33;100.00;61596.09;5068809;28;20036;-71
2024/03/05 03:25:48;;;;;;;86.30;40.22;;;;;;;-140.33;100.00;61596.09;5070108;28;20028;-74
2024/03/05 03:28:14;;;;;;;88.97;39.70;;;;;;;-140.33;100.00;61596.09;5070466;28;20028;-70
2024/03/05 03:30:39;;;;;;;82.70;37.88;;;;;;;-140.33;100.00;61596.09;5061686;28;20040;-71
2024/03/05 03:33:05;;;;;;;81.78;38.47;;;;;;;-140.33;100.00;61596.09;5071874;28;20046;-70
2024/03/05 03:35:30;;;;;;;84.68;39.40;;;;;;;-140.33;100.00;61596.09;5058425;28;20028;-73
2024/03/05 03:37:56;;;;;;;81.28;39.33;;;;;;;-140.33;100.00;61596.09;5070241;28;20093;-71
2024/03/05 03:40:22;;;;;;;84.18;39.78;;;;;;;-140.33;100.00;61596.09;5069718;28;20044;-71
2024/03/05 03:42:50;;;;;;;91.95;41.83;;;;;;;-140.33;100.00;61596.09;5071214;28;20423;-71
2024/03/05 03:45:17;;;;;;;81.85;39.08;;;;;;;-140.33;100.00;61596.09;5070969;28;20029;-69
2024/03/05 03:47:43;;;;;;;89.38;41.08;;;;;;;-140.33;100.00;61596.09;5069157;28;20043;-70
2024/03/05 03:50:09;;;;;;;89.05;40.08;;;;;;;-140.33;100.00;61596.09;5052069;28;20552;-72
2024/03/05 03:52:35;;;;;;;91.40;44.08;;;;;;;-140.33;100.00;61596.09;5068902;28;20491;-71
2024/03/05 03:55:00;;;;;;;86.75;42.22;;;;;;;-140.33;100.00;61596.09;5069765;28;20119;-72
2024/03/05 03:57:26;;;;;;;87.72;40.60;;;;;;;-140.33;100.00;61596.09;5052285;28;20115;-75
2024/03/05 03:59:54;;;;;;;94.32;42.05;;;;;;;-140.33;100.00;61596.09;5070159;28;20128;-73
2024/03/05 04:02:21;;;;;;;90.47;40.53;;;;;;;-140.33;100.00;61596.09;5062151;28;20526;-70
2024/03/05 04:04:47;;;;;;;94.05;42.60;;;;;;;-140.33;100.00;61596.09;5052565;28;20028;-73
2024/03/05 04:07:13;;;;;;;89.53;41.53;;;;;;;-140.33;100.00;61596.09;5069726;28;20554;-72
2024/03/05 04:09:38;;;;;;;92.47;43.28;;;;;;;-140.33;100.00;61596.09;5051566;28;20535;-71
2024/03/05 04:12:04;;;;;;;93.55;43.63;;;;;;;-140.33;100.00;61596.09;5051370;28;20509;-71
2024/03/05 04:14:30;;;;;;;86.57;40.03;;;;;;;-140.33;100.00;61596.09;5069027;28;20029;-71
2024/03/05 04:16:55;;;;;;;94.28;42.30;;;;;;;-140.33;100.00;61596.09;5058492;28;20077;-71
2024/03/05 04:19:21;;;;;;;85.95;41.10;;;;;;;-140.33;100.00;61596.09;5051737;28;20406;-71
2024/03/05 04:21:46;;;;;;;86.82;40.75;;;;;;;-140.33;100.00;61596.09;5069664;28;20395;-71
2024/03/05 04:24:13;;;;;;;89.15;42.28;;;;;;;-140.33;100.00;61596.09;5069439;28;20037;-72
2024/03/05 04:26:42;;;;;;;86.10;39.50;;;;;;;-140.33;100.00;61596.09;5069125;28;20024;-72
2024/03/05 04:29:09;;;;;;;84.18;40.80;;;;;;;-140.33;100.00;61596.09;5068676;28;20032;-70
2024/03/05 04:31:37;;;;;;;88.88;40.05;;;;;;;-140.33;100.00;61596.09;5068979;28;20111;-71
2024/03/05 04:34:04;;;;;;;88.60;40.00;;;;;;;-140.33;100.00;61596.09;5067990;28;20025;-71
2024/03/05 04:36:30;;;;;;;84.60;40.20;;;;;;;-140.33;100.00;61596.09;5067083;28;20028;-70
2024/03/05 04:38:55;;;;;;;85.32;39.25;;;;;;;-140.33;100.00;61596.09;5067965;28;20035;-71
2024/03/05 04:41:21;;;;;;;84.68;39.63;;;;;;;-140.33;100.00;61596.09;5067198;28;20167;-70
2024/03/05 04:43:46;;;;;;;93.60;41.30;;;;;;;-140.33;100.00;61596.09;5066725;28;20074;-70
2024/03/05 04:46:12;;;;;;;88.63;40.90;;;;;;;-140.33;100.00;61596.09;5049348;28;20024;-71
2024/03/05 04:48:41;;;;;;;89.97;40.92;;;;;;;-140.33;100.00;61596.09;5065295;28;20055;-70
2024/03/05 04:51:09;;;;;;;97.70;43.38;;;;;;;-140.33;100.00;61596.09;5068731;28;20036;-71
2024/03/05 04:53:36;;;;;;;90.25;41.85;;;;;;;-140.33;100.00;61596.09;5072182;28;20036;-72
2024/03/05 04:56:08;;;;;;;98.90;41.95;;;;;;;-140.33;100.00;61596.09;5067398;28;20175;-71
2024/03/05 04:58:35;;;;;;;96.32;41.33;;;;;;;-140.33;100.00;61596.09;5066704;28;20051;-70
2024/03/05 05:01:00;;;;;;;92.47;41.08;;;;;;;-140.33;100.00;61596.09;5067720;28;20067;-71
2024/03/05 05:03:26;;;;;;;98.55;41.47;;;;;;;-140.33;100.00;61596.09;5067531;28;20071;-72
2024/03/05 05:05:53;;;;;;;93.82;42.97;;;;;;;-140.33;100.00;61596.09;5067653;28;20060;-71
2024/03/05 05:08:19;;;;;;;93.88;42.20;;;;;;;-140.33;100.00;61596.09;5049211;28;20024;-71
2024/03/05 05:10:45;;;;;;;90.05;41.63;;;;;;;-140.33;100.00;61596.09;5067848;28;20047;-71
2024/03/05 05:13:10;;;;;;;90.18;41.72;;;;;;;-140.33;100.00;61596.09;5066440;28;20066;-71
2024/03/05 05:15:36;;;;;;;87.82;40.75;;;;;;;-140.33;100.00;61596.09;5067245;28;20028;-70
2024/03/05 05:18:01;;;;;;;85.28;39.00;;;;;;;-140.33;100.00;61596.09;5067679;28;20032;-71
2024/03/05 05:20:27;;;;;;;84.85;39.05;;;;;;;-140.33;100.00;61596.09;5067721;28;20522;-74
2024/03/05 05:22:53;;;;;;;80.60;39.40;;;;;;;-140.33;100.00;61596.09;5063051;28;20032;-71
2024/03/05 05:25:23;;;;;;;80.47;38.40;;;;;;;-140.33;100.00;61596.09;5049684;28;20116;-69
2024/03/05 05:27:49;;;;;;;82.32;38.92;;;;;;;-140.33;100.00;61596.09;5048041;28;20075;-70
2024/03/05 05:30:19;;;;;;;82.05;39.88;;;;;;;-140.33;100.00;61596.09;5063974;28;20071;-69
2024/03/05 05:32:49;;;;;;;90.53;41.97;;;;;;;-140.33;100.00;61596.09;5064552;28;20029;-74
2024/03/05 05:35:18;;;;;;;83.43;40.83;;;;;;;-140.33;100.00;61596.09;5065883;28;20072;-72
2024/03/05 05:37:44;;;;;;;77.20;37.95;;;;;;;-140.33;100.00;61596.09;5067030;28;20036;-73
2024/03/05 05:40:10;;;;;;;86.65;39.60;;;;;;;-140.33;100.00;61596.09;5048885;28;20047;-71
2024/03/05 05:42:37;;;;;;;81.40;39.10;;;;;;;-140.33;100.00;61596.09;5067380;28;20028;-74
2024/03/05 05:45:08;;;;;;;85.57;39.53;;;;;;;-140.33;100.00;61596.09;5065608;28;20063;-75
2024/03/05 05:47:38;;;;;;;60.43;29.60;;;;;;;-140.33;100.00;61596.09;5068191;28;20036;-74
2024/03/05 05:50:17;;;;;;;93.88;39.63;;;;;;;-140.33;100.00;61596.09;5054887;28;20119;-74
2024/03/05 05:52:52;;;;;;;78.80;36.97;;;;;;;-140.33;100.00;61596.09;5050440;28;24938;-72
2024/03/05 05:55:22;;;;;;;80.90;37.78;;;;;;;-140.33;100.00;61596.09;5071692;28;20036;-72
2024/03/05 05:57:49;;;;;;;75.45;37.63;;;;;;;-140.33;100.00;61596.09;5071824;28;20045;-72
2024/03/05 06:03:18;;;;;;;79.05;37.30;;;;;;;-140.33;100.00;61596.09;5036686;28;20056;-72
2024/03/05 06:05:45;;;;;;;84.20;36.85;;;;;;;-140.33;100.00;61596.09;5072075;28;20028;-75
2024/03/05 06:08:10;;;;;;;78.15;35.72;;;;;;;-140.33;100.00;61596.09;5071120;28;20552;-71
2024/03/05 06:10:37;;;;;;;83.90;37.53;;;;;;;-140.33;100.00;61596.09;5072085;28;20036;-72
2024/03/05 06:13:02;;;;;;;80.78;38.22;;;;;;;-140.33;100.00;61596.09;5070451;28;20089;-72
2024/03/05 06:15:29;;;;;;;86.22;37.17;;;;;;;-140.33;100.00;61596.09;5072229;28;20107;-73
2024/03/05 06:17:55;;;;;;;83.95;38.58;;;;;;;-140.33;100.00;61596.09;5053747;28;20029;-72
2024/03/05 06:20:21;;;;;;;79.38;38.83;;;;;;;-140.33;100.00;61596.09;5072280;28;20029;-75
2024/03/05 06:22:48;;;;;;;82.68;39.03;;;;;;;-140.33;100.00;61596.09;5071575;28;20111;-72
2024/03/05 06:25:17;;;;;;;81.75;39.55;;;;;;;-140.33;100.00;61596.09;5052580;28;20021;-71
2024/03/05 06:27:43;;;;;;;84.93;40.58;;;;;;;-140.33;100.00;61596.09;5072202;28;20481;-71
2024/03/05 06:30:21;;;;;;;88.18;45.28;;;;;;;-140.33;100.00;61596.09;5072037;28;20056;-71
2024/03/05 06:32:48;;;;;;;85.22;45.08;;;;;;;-140.33;100.00;61596.09;5062808;28;20027;-72
2024/03/05 06:35:31;;;;;;;80.90;44.30;;;;;;;-140.33;100.00;61596.09;5053514;28;20108;-71
2024/03/05 06:37:58;;;;;;;81.00;42.50;;;;;;;-140.33;100.00;61596.09;5070501;28;20025;-72
2024/03/05 06:40:25;;;;;;;80.82;43.22;;;;;;;-140.33;100.00;61596.09;5053511;28;20109;-72
2024/03/05 06:43:03;;;;;;;79.03;42.55;;;;;;;-140.33;100.00;61596.09;5053971;28;20086;-72
2024/03/05 06:45:29;;;;;;;78.55;41.20;;;;;;;-140.33;100.00;61596.09;5072163;28;20056;-72
2024/03/05 06:48:01;;;;;;;78.72;42.60;;;;;;;-140.33;100.00;61596.09;5056166;28;20078;-72
2024/03/05 06:50:41;;;;;;;74.63;41.03;;;;;;;-140.33;100.00;61596.09;5076415;28;20032;-72
2024/03/05 06:58:47;;;;;;;72.70;39.17;;;;;;;-140.33;100.00;61596.09;5071000;28;20040;-71
2024/03/05 07:01:14;;;;;;;70.85;37.55;;;;;;;-140.33;100.00;61596.09;5068216;28;20078;-71
2024/03/05 07:03:41;;;;;;;75.38;39.92;;;;;;;-140.33;100.00;61596.09;5071131;28;20024;-72
2024/03/05 07:06:07;;;;;;;69.15;39.03;;;;;;;-140.33;100.00;61596.09;5056992;28;20036;-72
2024/03/05 07:08:44;;;;;;;69.65;38.90;;;;;;;-140.33;100.00;61596.09;5070517;28;23446;-76
2024/03/05 07:11:11;;;;;;;73.75;36.70;;;;;;;-140.33;100.00;61596.09;5070595;28;20163;-71
2024/03/05 07:13:38;;;;;;;72.10;35.53;;;;;;;-140.33;100.00;61596.09;5053142;28;20556;-71
2024/03/05 07:16:04;;;;;;;76.60;38.40;;;;;;;-140.33;100.00;61596.09;5069867;28;20028;-71
2024/03/05 07:18:30;;;;;;;70.85;38.60;;;;;;;-140.33;100.00;61596.09;5071427;28;20078;-72
2024/03/05 07:20:56;;;;;;;70.57;37.20;;;;;;;-140.33;100.00;61596.09;5069650;28;20552;-72
2024/03/05 07:23:21;;;;;;;70.15;37.38;;;;;;;-140.33;100.00;61596.09;5070863;28;20024;-72
2024/03/05 07:25:47;;;;;;;73.60;38.58;;;;;;;-140.33;100.00;61596.09;5052801;28;20112;-73
2024/03/05 07:28:14;;;;;;;64.65;36.28;;;;;;;-140.33;100.00;61596.09;5070948;28;20037;-72
2024/03/05 07:30:41;;;;;;;67.80;37.60;;;;;;;-140.33;100.00;61596.09;5069565;28;20025;-72
2024/03/05 07:33:08;;;;;;;66.53;38.40;;;;;;;-140.33;100.00;61596.09;5070817;28;20146;-73
2024/03/05 07:35:35;;;;;;;72.50;39.13;;;;;;;-140.33;100.00;61596.09;5071111;28;20390;-74
2024/03/05 07:38:01;;;;;;;69.15;40.13;;;;;;;-140.33;100.00;61596.09;5064894;28;20050;-73
2024/03/05 07:40:27;;;;;;;66.57;36.78;;;;;;;-140.33;100.00;61596.09;5072044;28;20028;-73
2024/03/05 07:42:53;;;;;;;73.15;38.78;;;;;;;-140.33;100.00;61596.09;5070884;28;20119;-73
2024/03/05 07:45:21;;;;;;;71.20;39.33;;;;;;;-140.33;100.00;61596.09;5070563;28;20033;-73
2024/03/05 07:47:48;;;;;;;65.88;36.90;;;;;;;-140.33;100.00;61596.09;5069145;28;20036;-73
2024/03/05 07:50:14;;;;;;;63.13;35.17;;;;;;;-140.33;100.00;61596.09;5070435;28;20114;-73
2024/03/05 07:52:45;;;;;;;65.40;37.65;;;;;;;-140.33;100.00;61596.09;5070246;28;20025;-73
2024/03/05 07:55:14;;;;;;;63.75;36.10;;;;;;;-140.33;100.00;61596.09;5070166;28;20037;-73
2024/03/05 07:57:41;;;;;;;54.33;29.65;;;;;;;-140.33;100.00;61596.09;5070889;28;20411;-73
2024/03/05 08:00:12;;;;;;;55.20;32.50;;;;;;;-140.33;100.00;61596.09;5070030;28;20040;-74
2024/03/05 08:02:42;;;;;;;50.92;32.75;;;;;;;-140.33;100.00;61596.09;5069160;28;20470;-74
2024/03/05 08:05:08;;;;;;;49.20;30.60;;;;;;;-140.33;100.00;61596.09;5070060;28;20078;-73
2024/03/05 08:07:35;;;;;;;57.85;31.85;;;;;;;-140.33;100.00;61596.09;5069696;28;20116;-73
2024/03/05 08:10:08;;;;;;;57.00;33.38;;;;;;;-140.33;100.00;61596.09;5070157;28;20028;-73
2024/03/05 08:12:35;;;;;;;55.95;33.25;;;;;;;-140.33;100.00;61596.09;5069079;28;20036;-73
2024/03/05 08:15:03;;;;;;;52.50;31.48;;;;;;;-140.33;100.00;61596.09;5069572;28;20082;-73
2024/03/05 08:17:28;;;;;;;50.83;31.52;;;;;;;-140.33;100.00;61596.09;5069614;28;20044;-73
2024/03/05 08:19:54;;;;;;;54.67;30.80;;;;;;;-140.33;100.00;61596.09;5069667;28;20024;-73
2024/03/05 08:22:20;;;;;;;57.30;33.05;;;;;;;-140.33;100.00;61596.09;5070019;28;20036;-73
2024/03/05 08:24:46;;;;;;;57.03;32.03;;;;;;;-140.33;100.00;61596.09;5070101;28;20056;-74
2024/03/05 08:27:11;;;;;;;52.50;30.90;;;;;;;-140.33;100.00;61596.09;5069675;28;20076;-74
2024/03/05 08:29:39;;;;;;;50.38;30.40;;;;;;;-140.33;100.00;61596.09;5068882;28;20036;-75
2024/03/05 08:32:09;;;;;;;55.10;31.77;;;;;;;-140.33;100.00;61596.09;5070043;28;20035;-73
2024/03/05 08:34:36;;;;;;;55.08;30.25;;;;;;;-140.33;100.00;61596.09;5069382;28;20069;-74
2024/03/05 08:37:01;;;;;;;55.05;31.13;;;;;;;-140.33;100.00;61596.09;5069461;28;20927;-73
2024/03/05 08:39:27;;;;;;;54.58;31.77;;;;;;;-140.33;100.00;61596.09;5069913;28;20024;-73
2024/03/05 08:41:52;;;;;;;52.47;30.52;;;;;;;-140.33;100.00;61596.09;5068323;28;20024;-73
2024/03/05 08:44:18;;;;;;;53.75;32.05;;;;;;;-140.33;100.00;61596.09;5069267;28;20515;-74
2024/03/05 08:46:43;;;;;;;57.15;30.95;;;;;;;-140.33;100.00;61596.09;5069558;28;20427;-75
2024/03/05 08:49:09;;;;;;;49.83;31.83;;;;;;;-140.33;100.00;61596.09;5069169;28;20036;-74
2024/03/05 08:51:40;;;;;;;50.60;29.92;;;;;;;-140.33;100.00;61596.09;5069436;28;20427;-73
2024/03/05 08:54:08;;;;;;;;;;;;;;;-140.33;100.00;61596.09;5070199;28;20136;-74
2024/03/05 08:56:39;;;;;;;51.42;28.02;;;;;;;-140.33;100.00;61596.09;5069337;28;19916;-74
2024/03/05 08:59:06;;;;;;;48.17;30.03;;;;;;;11.03;100.00;132020.84;5068221;28;20051;-74
2024/03/05 09:01:33;;;;;;;51.78;30.85;;;;;;;10.74;100.00;132707.53;5050819;28;20032;-74
2024/03/05 09:04:00;;;;;;;51.10;32.35;;;;;;;-140.33;100.00;61596.09;5069445;28;20029;-73
2024/03/05 09:06:27;;;;;;;51.85;30.75;;;;;;;-140.33;100.00;61596.09;5067757;28;20036;-74
2024/03/05 09:08:52;;;;;;;46.53;29.88;;;;;;;9.99;100.00;134246.81;5067555;28;20032;-74
2024/03/05 09:11:18;;;;;;;48.88;28.65;;;;;;;10.37;100.00;134656.91;5068173;28;20548;-73
2024/03/05 09:13:46;;;;;;;47.50;28.05;;;;;;;10.54;100.00;135546.47;5051286;28;20427;-73
2024/03/05 09:16:12;;;;;;;42.53;30.08;;;;;;;10.85;100.00;136106.50;5068886;28;20028;-73
2024/03/05 09:18:38;;;;;;;44.90;28.90;;;;;;;10.92;100.00;136644.13;5067645;28;20060;-74
2024/03/05 09:21:04;;;;;;;43.95;28.05;;;;;;;10.75;100.00;137030.31;5069079;28;20123;-73
2024/03/05 09:23:30;;;;;;;47.03;29.33;;;;;;;10.51;100.00;137454.38;5068593;28;20103;-73
2024/03/05 09:25:55;;;;;;;41.33;27.80;;;;;;;11.11;100.00;137902.41;5069430;28;20471;-74
2024/03/05 09:28:21;;;;;;;46.15;28.48;;;;;;;11.45;100.00;138107.38;5069143;28;20538;-74
2024/03/05 09:30:46;;;;;;;44.22;28.92;;;;;;;11.42;100.00;138416.94;5050600;28;20680;-74
2024/03/05 09:33:12;;;;;;;44.42;28.67;;;;;;;11.22;100.00;138659.84;5068180;28;20036;-73
2024/03/05 09:35:39;;;;;;;44.47;29.05;;;;;;;11.55;100.00;138829.22;5068998;28;20071;-73
2024/03/05 09:38:04;;;;;;;44.95;29.85;;;;;;;10.80;100.00;138798.78;5069216;28;20035;-73
2024/03/05 09:40:30;;;;;;;48.88;30.98;;;;;;;11.54;100.00;139094.63;5056093;28;20020;-73
2024/03/05 09:42:59;;;;;;;49.05;31.20;;;;;;;11.83;100.00;139421.22;5068363;28;20106;-74
2024/03/05 09:45:28;;;;;;;44.03;26.90;;;;;;;10.77;100.00;139516.91;5069065;28;20032;-74
2024/03/05 09:47:54;;;;;;;43.53;30.63;;;;;;;11.21;100.00;139640.47;5067084;28;20483;-72
2024/03/05 09:50:21;;;;;;;46.17;31.10;;;;;;;11.18;100.00;139740.09;5068248;28;20037;-72
2024/03/05 09:52:48;;;;;;;44.92;29.95;;;;;;;11.48;100.00;140001.13;5068699;28;20107;-73
2024/03/05 09:55:14;;;;;;;43.75;28.90;;;;;;;11.81;100.00;140133.88;5068460;28;20041;-73
2024/03/05 09:57:40;;;;;;;60.83;36.40;;;;;;;10.89;100.00;140158.34;5068112;28;20107;-73
2024/03/05 10:00:09;;;;;;;50.85;30.63;;;;;;;11.15;100.00;140394.44;5069138;28;20032;-73
2024/03/05 10:02:35;;;;;;;48.78;31.33;;;;;;;11.48;100.00;140411.72;5065981;28;20123;-72
2024/03/05 10:05:02;;;;;;;47.30;31.80;;;;;;;11.04;100.00;140297.91;5068419;28;20479;-72
2024/03/05 10:07:27;;;;;;;41.25;29.13;;;;;;;11.53;100.00;140615.47;5067395;28;20025;-72
2024/03/05 10:10:10;;;;;;;50.17;29.48;;;;;;;11.67;100.00;140549.22;5067008;28;20031;-73
2024/03/05 10:12:35;;;;;;;43.88;29.10;;;;;;;11.88;100.00;140788.22;5066413;28;20029;-74
2024/03/05 10:15:30;;;;;;;40.28;27.90;;;;;;;12.31;100.00;140924.56;4715917;28;9999884;-73
2024/03/05 10:17:56;;;;;;;39.40;26.83;;;;;;;11.53;100.00;140830.41;5046455;28;20044;-74
2024/03/05 10:20:32;;;;;;;38.03;26.63;;;;;;;11.75;100.00;140900.41;5051107;28;20506;-77
2024/03/05 10:22:58;;;;;;;38.90;25.75;;;;;;;12.20;100.00;141135.59;5051627;28;20024;-72
2024/03/05 10:25:25;;;;;;;38.15;25.05;;;;;;;11.39;100.00;141045.97;5063453;28;20476;-75
2024/03/05 10:27:53;;;;;;;39.63;25.45;;;;;;;11.72;100.00;141202.53;5048334;28;20033;-74
2024/03/05 10:30:47;;;;;;;38.63;25.88;;;;;;;12.04;100.00;141363.31;5065914;28;20028;-73
2024/03/05 10:33:13;;;;;;;37.17;25.38;;;;;;;11.99;100.00;141369.53;5061536;28;20036;-74
2024/03/05 10:35:41;;;;;;;38.33;24.40;;;;;;;11.99;100.00;141317.97;5067086;28;20024;-74
2024/03/05 10:38:09;;;;;;;34.85;24.08;;;;;;;11.90;100.00;141343.09;5065594;28;20056;-74
2024/03/05 10:40:35;;;;;;;34.67;23.05;;;;;;;11.64;100.00;141384.53;5067732;28;20129;-75
2024/03/05 10:43:08;;;;;;;29.10;21.45;;;;;;;11.97;100.00;141464.16;5073692;28;20031;-76
2024/03/05 10:45:38;;;;;;;30.73;19.73;;;;;;;11.76;100.00;141700.47;5068273;28;20029;-75
2024/03/05 10:48:07;;;;;;;24.48;16.00;;;;;;;11.64;100.00;141600.97;5051860;28;20028;-74
2024/03/05 10:50:36;;;;;;;33.47;21.70;;;;;;;11.35;100.00;141569.38;5052399;28;20028;-72
2024/03/05 10:53:04;;;;;;;31.83;19.20;;;;;;;10.83;100.00;141510.34;5067930;28;20029;-72
2024/03/05 10:55:33;;;;;;;26.75;18.88;;;;;;;11.40;100.00;141755.19;5070539;28;20032;-72
2024/03/05 11:00:38;;;;;;;31.27;21.02;;;;;;;11.67;100.00;141876.09;5070587;28;20029;-73
2024/03/05 11:03:08;;;;;;;33.45;23.13;;;;;;;12.13;100.00;141744.47;5070097;28;20032;-74
2024/03/05 11:05:44;;;;;;;31.73;20.85;;;;;;;11.93;100.00;141958.56;5069414;28;20031;-73
2024/03/05 11:08:13;;;;;;;32.35;22.63;;;;;;;11.56;100.00;141839.59;5070463;28;20071;-73